Main page
METAR-TAF:

METAR-TAF

Airports :

Bou Saada Airport

Bou Saâda, Algeria

latitude: 35-20N, longitude: 004-12E, elevation: 461 m

Current weather observation

The report was made 2 hours and 24 minutes ago, at 18:00 UTC
Wind 2 kt from variable directions
Temperature 8°C
Humidity 42%
Pressure 1023 hPa
Visibility: 9000 m

METAR: DAAD 211800Z VRB02KT 9000 NSC 08/M04 Q1023

Time: 21:24 (20:24 UTC)

Forecast

The report was made 3 hours and 24 minutes ago, at 17:00 UTC
Forecast valid from 21 at 18 UTC to 22 at 03 UTC
Wind 2 kt from variable directions
Visibility: 9000 m

TAF: DAAD 211700Z 2118/2203 VRB02KT 9000 NSC

Weather observations and forecasts of more than 4000 airports (METAR and TAF reports).

The available stations are represented by yellow and red dots on the map.

Hover mouse over dot to see the name of the station.

Then click to see weather observations and forecasts.

To change the map : click on the green buttons with a black cross to zoom in, on the green button with a dash to zoom out, or on the green arrows for adjacent maps.


METAR-TAF: